Time;durP1;ratioP1;P1;durP2;ratioP2;P2;SDS_P1;SDS_P2;PMS_P1;PMS_P2;Temp;Humidity;BMP_temperature;BMP_pressure;BME280_temperature;BME280_humidity;BME280_pressure;Samples;Min_cycle;Max_cycle;Signal;HPM_P1;HPM_P2
2022/02/27 00:02:06;;;;;;;0.00;0.00;;;;;24.60;100530.00;;;;4820144;29;20050;-84
2022/02/27 00:04:35;;;;;;;0.00;0.00;;;;;24.50;100546.00;;;;4821648;29;20111;-87
2022/02/27 00:07:05;;;;;;;0.00;0.00;;;;;24.40;100544.00;;;;4828865;29;20458;-86
2022/02/27 00:09:35;;;;;;;0.00;0.00;;;;;24.30;100530.00;;;;4813049;29;20081;-86
2022/02/27 00:12:04;;;;;;;0.00;0.00;;;;;24.30;100542.00;;;;4821041;29;20050;-84
2022/02/27 00:14:34;;;;;;;0.00;0.00;;;;;24.30;100533.00;;;;4803734;29;20079;-85
2022/02/27 00:17:04;;;;;;;0.00;0.00;;;;;24.40;100513.00;;;;4803299;29;20062;-85
2022/02/27 00:19:33;;;;;;;0.00;0.00;;;;;24.30;100516.00;;;;4820154;29;20050;-85
2022/02/27 00:22:03;;;;;;;0.00;0.00;;;;;24.30;100526.00;;;;4820029;29;20065;-86
2022/02/27 00:24:33;;;;;;;0.00;0.00;;;;;24.30;100523.00;;;;4803684;29;20062;-86
2022/02/27 00:27:02;;;;;;;0.00;0.00;;;;;24.20;100516.00;;;;4803812;29;20589;-85
2022/02/27 00:29:32;;;;;;;0.00;0.00;;;;;24.20;100494.00;;;;4803485;29;20062;-86
2022/02/27 00:32:02;;;;;;;0.10;0.10;;;;;24.30;100487.00;;;;4802819;29;20643;-85
2022/02/27 00:34:31;;;;;;;0.00;0.00;;;;;24.30;100497.00;;;;4803756;29;20531;-84
2022/02/27 00:37:02;;;;;;;0.00;0.00;;;;;24.30;100494.00;;;;4803227;29;20584;-85
2022/02/27 00:39:31;;;;;;;0.08;0.08;;;;;24.20;100499.00;;;;4819853;29;20402;-85
2022/02/27 00:42:01;;;;;;;0.00;0.00;;;;;24.10;100506.00;;;;4802603;29;20430;-85
2022/02/27 00:44:30;;;;;;;0.00;0.00;;;;;23.90;100485.00;;;;4803165;29;20062;-84
2022/02/27 00:47:00;;;;;;;0.00;0.00;;;;;23.90;100467.00;;;;4819512;29;20061;-87
2022/02/27 00:49:31;;;;;;;0.00;0.00;;;;;23.80;100468.00;;;;4818275;29;20050;-86
2022/02/27 00:52:01;;;;;;;0.00;0.00;;;;;23.80;100462.00;;;;4819675;29;20050;-85
2022/02/27 00:54:30;;;;;;;0.00;0.00;;;;;23.70;100465.00;;;;4832584;29;20537;-86
2022/02/27 00:57:00;;;;;;;0.00;0.00;;;;;23.60;100464.00;;;;4802480;29;20054;-84
2022/02/27 00:59:29;;;;;;;0.00;0.00;;;;;23.50;100475.00;;;;4819551;29;20770;-85
2022/02/27 01:01:59;;;;;;;0.00;0.00;;;;;23.50;100451.00;;;;4803155;29;20046;-86
2022/02/27 01:04:29;;;;;;;0.00;0.00;;;;;23.50;100446.00;;;;4820005;29;20450;-85
2022/02/27 01:06:58;;;;;;;0.00;0.00;;;;;23.50;100448.00;;;;4802119;29;20438;-85
2022/02/27 01:09:28;;;;;;;0.00;0.00;;;;;23.50;100444.00;;;;4818966;29;20050;-86
2022/02/27 01:11:57;;;;;;;0.00;0.00;;;;;23.50;100447.00;;;;4819257;29;20065;-86
2022/02/27 01:14:27;;;;;;;0.00;0.00;;;;;23.50;100454.00;;;;4832622;29;20050;-85
2022/02/27 01:17:01;;;;;;;0.00;0.00;;;;;23.50;100451.00;;;;4802329;29;20407;-85
2022/02/27 01:19:31;;;;;;;0.00;0.00;;;;;23.60;100440.00;;;;4817743;29;20073;-87
2022/02/27 01:22:01;;;;;;;0.00;0.00;;;;;23.50;100438.00;;;;4802082;29;20066;-86
2022/02/27 01:24:36;;;;;;;0.00;0.00;;;;;23.60;100450.00;;;;4818563;29;20046;-86
2022/02/27 01:27:06;;;;;;;0.00;0.00;;;;;23.60;100430.00;;;;4802332;29;20050;-86
2022/02/27 01:29:35;;;;;;;0.00;0.00;;;;;23.60;100435.00;;;;4819220;29;20786;-85
2022/02/27 01:32:06;;;;;;;0.00;0.00;;;;;23.50;100422.00;;;;4818604;29;20082;-85
2022/02/27 01:34:38;;;;;;;0.00;0.00;;;;;23.40;100421.00;;;;4802278;29;20434;-87
2022/02/27 01:37:08;;;;;;;0.45;0.45;;;;;23.40;100412.00;;;;4818963;29;20053;-85
2022/02/27 01:39:37;;;;;;;0.00;0.00;;;;;23.30;100432.00;;;;4817652;29;20058;-86
2022/02/27 01:42:10;;;;;;;0.00;0.00;;;;;23.30;100406.00;;;;4801847;29;20126;-86
2022/02/27 01:44:42;;;;;;;0.00;0.00;;;;;23.30;100424.00;;;;4802412;29;20058;-84
2022/02/27 01:47:12;;;;;;;0.00;0.00;;;;;23.20;100426.00;;;;4801946;29;20050;-85
2022/02/27 01:49:47;;;;;;;0.00;0.00;;;;;23.20;100421.00;;;;4818584;29;20479;-85
2022/02/27 01:52:17;;;;;;;0.00;0.00;;;;;23.20;100417.00;;;;4818500;29;20505;-84
2022/02/27 01:54:47;;;;;;;0.55;0.45;;;;;23.20;100431.00;;;;4801298;29;20050;-85
2022/02/27 01:57:17;;;;;;;0.85;0.52;;;;;23.10;100427.00;;;;4802234;29;20046;-85
2022/02/27 01:59:47;;;;;;;0.20;0.20;;;;;23.10;100421.00;;;;4802155;29;21124;-85
2022/02/27 02:02:21;;;;;;;0.00;0.00;;;;;23.10;100438.00;;;;4818111;29;20446;-86
2022/02/27 02:04:53;;;;;;;0.00;0.00;;;;;23.00;100436.00;;;;4817111;29;20058;-85
2022/02/27 02:07:23;;;;;;;0.00;0.00;;;;;23.00;100439.00;;;;4801921;29;20069;-85
2022/02/27 02:09:53;;;;;;;0.00;0.00;;;;;23.00;100435.00;;;;4801665;29;20050;-84
2022/02/27 02:12:23;;;;;;;0.00;0.00;;;;;23.10;100436.00;;;;4801982;29;20069;-86
2022/02/27 02:14:54;;;;;;;0.00;0.00;;;;;23.00;100438.00;;;;4801759;29;20062;-84
2022/02/27 02:17:25;;;;;;;0.30;0.30;;;;;22.90;100436.00;;;;4831913;29;20449;-84
2022/02/27 02:19:55;;;;;;;0.00;0.00;;;;;22.90;100443.00;;;;4816555;29;20050;-84
2022/02/27 02:22:25;;;;;;;0.00;0.00;;;;;22.90;100443.00;;;;4802549;29;20840;-84
2022/02/27 02:24:55;;;;;;;0.00;0.00;;;;;22.80;100439.00;;;;4834234;29;20114;-85
2022/02/27 02:27:25;;;;;;;2.60;1.27;;;;;22.80;100427.00;;;;4811116;29;20046;-85
2022/02/27 02:29:55;;;;;;;0.10;0.10;;;;;22.70;100443.00;;;;4801949;29;20062;-84
2022/02/27 02:32:25;;;;;;;0.70;0.45;;;;;22.70;100452.00;;;;4801024;29;20051;-84
2022/02/27 02:34:55;;;;;;;0.10;0.10;;;;;22.60;100441.00;;;;4818297;29;20052;-85
2022/02/27 02:37:26;;;;;;;0.25;0.25;;;;;22.60;100443.00;;;;4801565;29;20059;-85
2022/02/27 02:39:55;;;;;;;0.00;0.00;;;;;22.60;100431.00;;;;4818130;29;20055;-86
2022/02/27 02:42:25;;;;;;;0.00;0.00;;;;;22.60;100434.00;;;;4801423;29;20168;-85
2022/02/27 02:44:56;;;;;;;0.00;0.00;;;;;22.60;100430.00;;;;4817036;29;20494;-85
2022/02/27 02:47:25;;;;;;;0.00;0.00;;;;;22.50;100439.00;;;;4818202;29;20502;-85
2022/02/27 02:49:57;;;;;;;0.45;0.45;;;;;22.50;100451.00;;;;4831229;29;20434;-85
2022/02/27 02:52:27;;;;;;;0.00;0.00;;;;;22.50;100440.00;;;;4801275;29;20065;-84
2022/02/27 02:55:01;;;;;;;0.00;0.00;;;;;22.50;100434.00;;;;4814732;29;20054;-86
2022/02/27 02:57:30;;;;;;;0.30;0.30;;;;;22.50;100448.00;;;;4834879;29;20046;-85
2022/02/27 03:00:00;;;;;;;0.00;0.00;;;;;22.50;100454.00;;;;4821416;29;20039;-85
2022/02/27 03:02:30;;;;;;;0.00;0.00;;;;;22.40;100470.00;;;;4821607;29;20054;-85
2022/02/27 03:05:05;;;;;;;0.00;0.00;;;;;22.40;100476.00;;;;4820822;29;20041;-88
2022/02/27 03:07:36;;;;;;;0.00;0.00;;;;;22.30;100461.00;;;;4813172;29;20073;-85
2022/02/27 03:10:09;;;;;;;0.00;0.00;;;;;22.40;100470.00;;;;4820691;29;20046;-86
2022/02/27 03:12:39;;;;;;;0.00;0.00;;;;;22.40;100483.00;;;;4820745;29;20074;-85
2022/02/27 03:15:09;;;;;;;0.05;0.05;;;;;22.30;100466.00;;;;4820446;29;20418;-85
2022/02/27 03:17:40;;;;;;;0.00;0.00;;;;;22.20;100453.00;;;;4805296;29;20061;-85
2022/02/27 03:20:10;;;;;;;0.43;0.43;;;;;22.20;100468.00;;;;4818594;29;20046;-85
2022/02/27 03:22:41;;;;;;;0.00;0.00;;;;;22.30;100466.00;;;;4823917;29;20058;-85
2022/02/27 03:25:11;;;;;;;0.00;0.00;;;;;22.20;100467.00;;;;4817126;29;20790;-85
2022/02/27 03:27:40;;;;;;;0.00;0.00;;;;;22.20;100459.00;;;;4833718;29;20121;-85
2022/02/27 03:30:10;;;;;;;0.00;0.00;;;;;22.10;100465.00;;;;4834700;29;20098;-85
2022/02/27 03:32:45;;;;;;;0.00;0.00;;;;;22.10;100460.00;;;;4804530;29;20055;-84
2022/02/27 03:35:20;;;;;;;0.00;0.00;;;;;22.10;100463.00;;;;4821028;29;20046;-84
2022/02/27 03:37:50;;;;;;;0.00;0.00;;;;;22.00;100457.00;;;;4804497;29;20065;-84
2022/02/27 03:40:20;;;;;;;0.00;0.00;;;;;22.10;100444.00;;;;4819723;29;20048;-85
2022/02/27 03:42:50;;;;;;;0.00;0.00;;;;;22.10;100436.00;;;;4804063;29;20138;-84
2022/02/27 03:45:19;;;;;;;0.00;0.00;;;;;22.10;100457.00;;;;4820206;29;20046;-85
2022/02/27 03:47:49;;;;;;;0.20;0.20;;;;;22.00;100458.00;;;;4820611;29;20054;-85
2022/02/27 03:50:19;;;;;;;0.00;0.00;;;;;21.90;100452.00;;;;4833903;29;20054;-85
2022/02/27 03:52:48;;;;;;;0.00;0.00;;;;;22.00;100420.00;;;;4820506;29;20081;-85
2022/02/27 03:55:19;;;;;;;0.00;0.00;;;;;22.00;100444.00;;;;4803293;29;20565;-84
2022/02/27 03:57:48;;;;;;;0.80;0.73;;;;;22.00;100433.00;;;;4803780;29;20065;-86
2022/02/27 04:00:19;;;;;;;0.00;0.00;;;;;22.10;100416.00;;;;4803778;29;20358;-84
2022/02/27 04:02:48;;;;;;;0.00;0.00;;;;;22.10;100416.00;;;;4820413;29;20060;-86
2022/02/27 04:05:20;;;;;;;0.00;0.00;;;;;22.10;100422.00;;;;4804624;29;20050;-85
2022/02/27 04:07:50;;;;;;;0.00;0.00;;;;;22.10;100416.00;;;;4803482;29;20059;-84
2022/02/27 04:10:22;;;;;;;0.00;0.00;;;;;22.00;100416.00;;;;4804069;29;20777;-86
2022/02/27 04:12:52;;;;;;;0.00;0.00;;;;;22.00;100405.00;;;;4804316;29;20141;-88
2022/02/27 04:15:22;;;;;;;0.00;0.00;;;;;22.00;100379.00;;;;4821020;29;20767;-86
2022/02/27 04:17:52;;;;;;;0.00;0.00;;;;;21.90;100388.00;;;;4822313;29;20046;-84
2022/02/27 04:20:24;;;;;;;0.00;0.00;;;;;21.80;100373.00;;;;4820947;29;20511;-86
2022/02/27 04:22:54;;;;;;;0.00;0.00;;;;;21.80;100370.00;;;;4805231;29;20090;-87
2022/02/27 04:25:26;;;;;;;0.00;0.00;;;;;21.80;100368.00;;;;4821752;29;20046;-84
2022/02/27 04:27:56;;;;;;;0.00;0.00;;;;;21.80;100353.00;;;;4820919;29;20054;-86
2022/02/27 04:30:27;;;;;;;1.85;0.40;;;;;21.80;100360.00;;;;4819966;29;20042;-84
2022/02/27 04:32:57;;;;;;;0.00;0.00;;;;;21.80;100334.00;;;;4804538;29;20062;-85
2022/02/27 04:35:29;;;;;;;0.00;0.00;;;;;21.70;100331.00;;;;4821691;29;20053;-85
2022/02/27 04:37:59;;;;;;;0.00;0.00;;;;;21.70;100333.00;;;;4804640;29;20510;-86
2022/02/27 04:40:33;;;;;;;0.03;0.03;;;;;21.70;100318.00;;;;4821849;29;20053;-86
2022/02/27 04:43:03;;;;;;;0.00;0.00;;;;;21.70;100338.00;;;;4835344;29;20420;-85
2022/02/27 04:45:33;;;;;;;0.00;0.00;;;;;21.60;100323.00;;;;4806626;29;20153;-85
2022/02/27 04:48:02;;;;;;;0.15;0.13;;;;;21.60;100341.00;;;;4806488;29;20062;-84
2022/02/27 04:50:33;;;;;;;0.30;0.30;;;;;21.60;100335.00;;;;4820226;29;20070;-85
2022/02/27 04:53:02;;;;;;;0.25;0.25;;;;;21.60;100313.00;;;;4844499;29;20050;-84
2022/02/27 04:55:34;;;;;;;0.03;0.03;;;;;21.60;100303.00;;;;4820322;29;20121;-85
2022/02/27 04:58:04;;;;;;;0.50;0.50;;;;;21.70;100297.00;;;;4820144;29;20429;-83
2022/02/27 05:00:36;;;;;;;0.00;0.00;;;;;21.80;100298.00;;;;4827690;29;20057;-84
2022/02/27 05:03:06;;;;;;;3.03;2.30;;;;;21.80;100290.00;;;;4822116;29;20068;-86
2022/02/27 05:05:38;;;;;;;0.00;0.00;;;;;21.70;100281.00;;;;4828239;29;20451;-84
2022/02/27 05:08:08;;;;;;;0.10;0.10;;;;;21.80;100262.00;;;;4823545;29;20058;-83
2022/02/27 05:10:37;;;;;;;0.10;0.10;;;;;21.70;100281.00;;;;4835452;29;20077;-84
2022/02/27 05:13:07;;;;;;;0.00;0.00;;;;;21.70;100279.00;;;;4822482;29;20422;-86
2022/02/27 05:15:36;;;;;;;0.00;0.00;;;;;21.70;100271.00;;;;4799523;29;20426;-84
2022/02/27 05:18:06;;;;;;;0.00;0.00;;;;;21.70;100271.00;;;;4821711;29;20620;-84
2022/02/27 05:20:35;;;;;;;0.00;0.00;;;;;21.70;100268.00;;;;4812448;29;20054;-86
2022/02/27 05:23:06;;;;;;;1.02;0.60;;;;;21.60;100285.00;;;;4821254;29;20441;-83
2022/02/27 05:25:35;;;;;;;0.40;0.40;;;;;21.60;100270.00;;;;4822251;29;20042;-84
2022/02/27 05:28:05;;;;;;;0.60;0.60;;;;;21.60;100265.00;;;;4805495;29;20058;-85
2022/02/27 05:30:34;;;;;;;0.10;0.10;;;;;21.60;100270.00;;;;4805826;29;20046;-82
2022/02/27 05:33:04;;;;;;;0.05;0.05;;;;;21.60;100266.00;;;;4822279;29;20054;-84
2022/02/27 05:35:33;;;;;;;1.50;0.77;;;;;21.60;100276.00;;;;4804947;29;20552;-84
2022/02/27 05:38:03;;;;;;;0.15;0.15;;;;;21.60;100271.00;;;;4836134;29;20050;-84
2022/02/27 05:40:33;;;;;;;0.10;0.10;;;;;21.60;100268.00;;;;4834640;29;20475;-83
2022/02/27 05:43:02;;;;;;;1.98;0.88;;;;;21.60;100274.00;;;;4820099;29;20518;-83
2022/02/27 05:45:32;;;;;;;0.75;0.30;;;;;21.70;100265.00;;;;4805384;29;20046;-84
2022/02/27 05:48:02;;;;;;;0.00;0.00;;;;;21.60;100240.00;;;;4820882;29;20045;-82
2022/02/27 05:50:35;;;;;;;0.05;0.05;;;;;21.60;100241.00;;;;4821784;29;20049;-84
2022/02/27 05:53:04;;;;;;;0.00;0.00;;;;;21.50;100246.00;;;;4805258;29;20112;-83
2022/02/27 05:55:34;;;;;;;0.17;0.17;;;;;21.50;100243.00;;;;4804930;29;20581;-83
2022/02/27 05:58:04;;;;;;;0.00;0.00;;;;;21.50;100243.00;;;;4821604;29;20047;-85
2022/02/27 06:00:33;;;;;;;0.00;0.00;;;;;21.50;100245.00;;;;4803691;29;20695;-84
2022/02/27 06:03:03;;;;;;;0.20;0.20;;;;;21.50;100236.00;;;;4820892;29;20043;-84
2022/02/27 06:05:33;;;;;;;0.40;0.30;;;;;21.50;100229.00;;;;4802825;29;20446;-86
2022/02/27 06:08:02;;;;;;;0.00;0.00;;;;;21.50;100224.00;;;;4832707;29;20062;-85
2022/02/27 06:10:32;;;;;;;0.00;0.00;;;;;21.40;100240.00;;;;4819687;29;20105;-86
2022/02/27 06:13:01;;;;;;;0.30;0.30;;;;;21.50;100235.00;;;;4819192;29;20497;-85
2022/02/27 06:15:31;;;;;;;0.00;0.00;;;;;21.50;100251.00;;;;4818900;29;20054;-86
2022/02/27 06:18:00;;;;;;;0.00;0.00;;;;;21.40;100231.00;;;;4819965;29;20053;-83
2022/02/27 06:20:30;;;;;;;0.25;0.25;;;;;21.40;100244.00;;;;4803873;29;20062;-85
2022/02/27 06:23:00;;;;;;;0.43;0.43;;;;;21.40;100229.00;;;;4820766;29;20050;-84
2022/02/27 06:25:29;;;;;;;0.03;0.03;;;;;21.40;100229.00;;;;4820742;29;20050;-84
2022/02/27 06:28:03;;;;;;;0.00;0.00;;;;;21.50;100229.00;;;;4819948;29;20121;-85
2022/02/27 06:30:32;;;;;;;0.00;0.00;;;;;21.40;100233.00;;;;4833373;29;20069;-82
2022/02/27 06:33:04;;;;;;;0.00;0.00;;;;;21.40;100228.00;;;;4823427;29;20302;-84
2022/02/27 06:35:33;;;;;;;0.00;0.00;;;;;21.40;100223.00;;;;4807118;29;20050;-86
2022/02/27 06:38:04;;;;;;;;;;;;;21.40;100215.00;;;;4823942;29;20057;-84
2022/02/27 06:40:33;;;;;;;0.00;0.00;;;;;21.40;100201.00;;;;4807029;29;19947;-85
2022/02/27 06:43:07;;;;;;;0.15;0.15;;;;;21.40;100189.00;;;;4794641;29;20071;-85
2022/02/27 06:45:37;;;;;;;0.00;0.00;;;;;21.50;100195.00;;;;4803650;29;20461;-83
2022/02/27 06:48:07;;;;;;;0.00;0.00;;;;;21.40;100204.00;;;;4805337;29;20046;-86
2022/02/27 06:50:37;;;;;;;0.00;0.00;;;;;21.30;100189.00;;;;4803822;29;20440;-85
2022/02/27 06:53:10;;;;;;;0.00;0.00;;;;;21.30;100186.00;;;;4804213;29;20057;-84
2022/02/27 06:55:40;;;;;;;0.00;0.00;;;;;21.20;100194.00;;;;4803970;29;20100;-83
2022/02/27 06:58:10;;;;;;;1.75;0.98;;;;;21.20;100198.00;;;;4804809;29;20404;-84
2022/02/27 07:00:40;;;;;;;0.00;0.00;;;;;21.20;100188.00;;;;4787799;29;20414;-83
2022/02/27 07:03:13;;;;;;;0.00;0.00;;;;;21.20;100189.00;;;;4788124;29;20487;-83
2022/02/27 07:05:42;;;;;;;0.00;0.00;;;;;21.10;100189.00;;;;4787981;29;20511;-83
2022/02/27 07:08:13;;;;;;;0.08;0.08;;;;;21.10;100191.00;;;;4804634;29;20074;-85
2022/02/27 07:10:43;;;;;;;0.00;0.00;;;;;21.10;100202.00;;;;4804037;29;20058;-85
2022/02/27 07:13:17;;;;;;;0.00;0.00;;;;;21.10;100188.00;;;;4804130;29;20131;-84
2022/02/27 07:15:47;;;;;;;0.00;0.00;;;;;21.10;100194.00;;;;4787156;29;20092;-86
2022/02/27 07:18:17;;;;;;;0.00;0.00;;;;;21.10;100190.00;;;;4804862;29;20051;-86
2022/02/27 07:20:46;;;;;;;0.00;0.00;;;;;21.00;100175.00;;;;4823143;29;20041;-84
2022/02/27 07:23:17;;;;;;;0.00;0.00;;;;;21.00;100196.00;;;;4812958;29;20082;-85
2022/02/27 07:25:47;;;;;;;0.00;0.00;;;;;21.00;100189.00;;;;4788692;29;20046;-82
2022/02/27 07:28:19;;;;;;;0.17;0.17;;;;;21.00;100188.00;;;;4788255;29;20054;-85
2022/02/27 07:30:48;;;;;;;0.00;0.00;;;;;20.90;100185.00;;;;4786929;29;20062;-85
2022/02/27 07:33:23;;;;;;;0.00;0.00;;;;;20.90;100169.00;;;;4786760;29;20059;-83
2022/02/27 07:35:52;;;;;;;0.00;0.00;;;;;20.90;100179.00;;;;4786746;29;20051;-84
2022/02/27 07:38:22;;;;;;;0.00;0.00;;;;;20.90;100186.00;;;;4817413;29;20055;-86
2022/02/27 07:40:52;;;;;;;0.00;0.00;;;;;20.90;100187.00;;;;4805066;29;20070;-84
2022/02/27 07:43:24;;;;;;;0.00;0.00;;;;;20.90;100169.00;;;;4815221;29;20559;-84
2022/02/27 07:45:53;;;;;;;0.00;0.00;;;;;20.90;100193.00;;;;4841823;29;20858;-85
2022/02/27 07:48:28;;;;;;;0.00;0.00;;;;;20.90;100179.00;;;;4823323;29;20126;-84
2022/02/27 07:50:58;;;;;;;0.00;0.00;;;;;20.90;100189.00;;;;4840566;29;20050;-85
2022/02/27 07:53:28;;;;;;;0.00;0.00;;;;;20.90;100188.00;;;;4842562;29;20046;-86
2022/02/27 07:55:57;;;;;;;0.00;0.00;;;;;20.90;100185.00;;;;4824453;29;20046;-83
2022/02/27 07:58:27;;;;;;;0.00;0.00;;;;;20.90;100176.00;;;;4839933;29;20516;-85
2022/02/27 08:00:57;;;;;;;0.00;0.00;;;;;20.80;100163.00;;;;4854999;29;20460;-88
2022/02/27 08:03:30;;;;;;;0.00;0.00;;;;;20.90;100171.00;;;;4824409;29;20526;-84
2022/02/27 08:05:59;;;;;;;0.00;0.00;;;;;21.00;100186.00;;;;4823731;29;20045;-85
2022/02/27 08:08:33;;;;;;;0.00;0.00;;;;;21.00;100169.00;;;;4824137;29;20061;-87
2022/02/27 08:11:03;;;;;;;0.45;0.45;;;;;20.90;100166.00;;;;4824996;29;20227;-85
2022/02/27 08:13:32;;;;;;;0.00;0.00;;;;;20.90;100161.00;;;;4821939;29;20045;-85
2022/02/27 08:16:02;;;;;;;0.00;0.00;;;;;20.90;100166.00;;;;4821243;29;20058;-85
2022/02/27 08:18:34;;;;;;;0.52;0.30;;;;;21.00;100175.00;;;;4838564;29;20085;-85
2022/02/27 08:21:04;;;;;;;0.00;0.00;;;;;21.00;100189.00;;;;4822304;29;20085;-86
2022/02/27 08:23:34;;;;;;;0.08;0.08;;;;;20.90;100183.00;;;;4840546;29;20057;-86
2022/02/27 08:26:04;;;;;;;0.00;0.00;;;;;20.80;100179.00;;;;4822996;29;20065;-84
2022/02/27 08:28:36;;;;;;;0.00;0.00;;;;;20.80;100187.00;;;;4841000;29;20058;-84
2022/02/27 08:31:05;;;;;;;0.00;0.00;;;;;20.80;100180.00;;;;4839839;29;20041;-86
2022/02/27 08:33:38;;;;;;;0.00;0.00;;;;;20.70;100175.00;;;;4823078;29;20524;-84
2022/02/27 08:36:09;;;;;;;0.00;0.00;;;;;20.70;100170.00;;;;4822892;29;20057;-84
2022/02/27 08:38:38;;;;;;;0.00;0.00;;;;;20.80;100170.00;;;;4838889;29;20631;-85
2022/02/27 08:41:08;;;;;;;0.00;0.00;;;;;20.70;100166.00;;;;4821581;29;20058;-85
2022/02/27 08:43:40;;;;;;;0.20;0.20;;;;;20.70;100169.00;;;;4838753;29;20070;-84
2022/02/27 08:46:09;;;;;;;0.00;0.00;;;;;20.80;100184.00;;;;4839597;29;20506;-87
2022/02/27 08:48:41;;;;;;;0.00;0.00;;;;;20.80;100180.00;;;;4821771;29;20140;-84
2022/02/27 08:51:11;;;;;;;0.00;0.00;;;;;20.80;100182.00;;;;4838187;29;20053;-85
2022/02/27 08:53:42;;;;;;;0.00;0.00;;;;;20.90;100201.00;;;;4806259;29;20054;-87
2022/02/27 08:56:12;;;;;;;0.00;0.00;;;;;20.90;100183.00;;;;4838988;29;20053;-85
2022/02/27 08:58:44;;;;;;;0.00;0.00;;;;;20.90;100185.00;;;;4837699;29;20058;-84
2022/02/27 09:01:13;;;;;;;0.00;0.00;;;;;20.90;100190.00;;;;4837906;29;20779;-87
2022/02/27 09:03:46;;;;;;;0.00;0.00;;;;;20.90;100176.00;;;;4823367;29;20053;-85
2022/02/27 09:06:16;;;;;;;0.00;0.00;;;;;20.90;100166.00;;;;4821858;29;20054;-85
2022/02/27 09:08:46;;;;;;;0.00;0.00;;;;;21.00;100178.00;;;;4838701;29;20455;-86
2022/02/27 09:11:17;;;;;;;0.00;0.00;;;;;21.00;100172.00;;;;4838848;29;20069;-84
2022/02/27 09:13:48;;;;;;;0.00;0.00;;;;;21.00;100147.00;;;;4837686;29;20133;-86
2022/02/27 09:16:17;;;;;;;0.00;0.00;;;;;21.10;100171.00;;;;4837184;29;20054;-87
2022/02/27 09:18:48;;;;;;;0.00;0.00;;;;;21.10;100173.00;;;;4821203;29;20042;-85
2022/02/27 09:21:17;;;;;;;1.27;1.17;;;;;21.10;100157.00;;;;4822858;29;20046;-83
2022/02/27 09:23:46;;;;;;;0.00;0.00;;;;;21.20;100153.00;;;;4838740;29;20106;-83
2022/02/27 09:26:16;;;;;;;0.00;0.00;;;;;21.20;100168.00;;;;4821318;29;20773;-87
2022/02/27 09:28:56;;;;;;;0.00;0.00;;;;;21.30;100160.00;;;;4836849;29;20046;-84
2022/02/27 09:31:26;;;;;;;0.00;0.00;;;;;21.30;100170.00;;;;4821654;29;20780;-83
2022/02/27 09:33:56;;;;;;;0.00;0.00;;;;;21.40;100177.00;;;;4838916;29;20527;-86
2022/02/27 09:36:26;;;;;;;0.00;0.00;;;;;21.50;100173.00;;;;4837420;29;20053;-86
2022/02/27 09:38:56;;;;;;;0.00;0.00;;;;;21.60;100166.00;;;;4838539;29;20050;-86
2022/02/27 09:41:25;;;;;;;0.00;0.00;;;;;21.70;100189.00;;;;4837047;29;20045;-83
2022/02/27 09:44:01;;;;;;;0.00;0.00;;;;;21.80;100189.00;;;;4837328;29;20077;-85
2022/02/27 09:46:32;;;;;;;0.00;0.00;;;;;21.90;100177.00;;;;4821120;29;20053;-86
2022/02/27 09:49:04;;;;;;;0.00;0.00;;;;;21.90;100178.00;;;;4837726;29;20048;-86
2022/02/27 09:51:33;;;;;;;;;;;;;22.00;100186.00;;;;4825483;29;20882;-82
2022/02/27 09:54:03;;;;;;;0.00;0.00;;;;;22.20;100170.00;;;;4841293;29;19956;-84
2022/02/27 09:56:32;;;;;;;0.00;0.00;;;;;22.30;100179.00;;;;4823198;29;20061;-86
2022/02/27 09:59:02;;;;;;;0.00;0.00;;;;;22.50;100196.00;;;;4837468;29;20072;-87
2022/02/27 10:01:32;;;;;;;0.03;0.03;;;;;22.60;100180.00;;;;4836958;29;20054;-84
2022/02/27 10:04:19;;;;;;;0.00;0.00;;;;;22.70;100199.00;;;;4837613;29;20433;-85
2022/02/27 10:06:50;;;;;;;0.00;0.00;;;;;22.90;100208.00;;;;4836537;29;20552;-85
2022/02/27 10:09:24;;;;;;;0.00;0.00;;;;;23.00;100188.00;;;;4820691;29;20165;-87
2022/02/27 10:12:15;;;;;;;0.00;0.00;;;;;23.10;100200.00;;;;4836593;29;20050;-83
2022/02/27 10:15:06;;;;;;;0.10;0.10;;;;;23.10;100202.00;;;;4836678;29;20518;-83
2022/02/27 10:17:41;;;;;;;0.00;0.00;;;;;23.10;100194.00;;;;4821241;29;20079;-86
2022/02/27 10:20:13;;;;;;;0.00;0.00;;;;;23.10;100208.00;;;;4822089;29;20100;-84
2022/02/27 10:22:46;;;;;;;0.00;0.00;;;;;23.30;100207.00;;;;4850300;29;20421;-85
2022/02/27 10:25:26;;;;;;;0.00;0.00;;;;;23.90;100183.00;;;;4820132;29;20467;-84
2022/02/27 10:28:05;;;;;;;0.00;0.00;;;;;24.40;100157.00;;;;4836544;29;20041;-85
2022/02/27 10:30:37;;;;;;;0.00;0.00;;;;;26.20;100123.00;;;;4836361;29;20049;-84
2022/02/27 10:33:13;;;;;;;0.03;0.03;;;;;26.80;100136.00;;;;4820345;29;20050;-83
2022/02/27 10:35:46;;;;;;;0.00;0.00;;;;;27.40;100113.00;;;;4819881;29;20849;-86
2022/02/27 10:38:17;;;;;;;0.00;0.00;;;;;29.50;100042.00;;;;4820149;29;20058;-87
2022/02/27 10:40:50;;;;;;;0.15;0.15;;;;;32.10;100046.00;;;;4836949;29;20075;-86
2022/02/27 10:43:20;;;;;;;1.35;0.70;;;;;34.00;100017.00;;;;4836297;29;20064;-87
2022/02/27 10:46:04;;;;;;;0.00;0.00;;;;;35.20;100022.00;;;;4836218;29;20050;-87
2022/02/27 10:48:34;;;;;;;0.00;0.00;;;;;34.30;100078.00;;;;4836372;29;20106;-87
2022/02/27 10:51:05;;;;;;;0.00;0.00;;;;;33.60;100086.00;;;;4836525;29;20047;-85
2022/02/27 10:53:37;;;;;;;0.00;0.00;;;;;33.10;100066.00;;;;4819695;29;20045;-88
2022/02/27 10:56:12;;;;;;;0.00;0.00;;;;;34.20;100081.00;;;;4820443;29;20052;-86
2022/02/27 10:58:45;;;;;;;0.00;0.00;;;;;34.80;100006.00;;;;4819342;29;20102;-88
2022/02/27 11:01:20;;;;;;;0.00;0.00;;;;;36.00;100043.00;;;;4835908;29;20037;-86
2022/02/27 11:03:53;;;;;;;0.00;0.00;;;;;35.50;100088.00;;;;4837556;29;20046;-88
2022/02/27 11:06:23;;;;;;;0.00;0.00;;;;;33.70;100136.00;;;;4836076;29;20057;-85
2022/02/27 11:08:53;;;;;;;0.00;0.00;;;;;35.00;100066.00;;;;4819847;29;20053;-88
2022/02/27 11:11:23;;;;;;;0.00;0.00;;;;;35.80;100065.00;;;;4825374;29;20049;-85
2022/02/27 11:13:53;;;;;;;0.13;0.13;;;;;37.90;100044.00;;;;4820414;29;20049;-89
2022/02/27 11:16:24;;;;;;;0.00;0.00;;;;;39.50;100085.00;;;;4835964;29;20088;-86
2022/02/27 11:18:53;;;;;;;;;;;;;37.90;100127.00;;;;4839984;29;20042;-84
2022/02/27 11:21:23;;;;;;;0.00;0.00;;;;;38.90;100103.00;;;;4824180;29;20449;-85
2022/02/27 11:23:53;;;;;;;0.00;0.00;;;;;37.40;100107.00;;;;4843076;29;20058;-85
2022/02/27 11:26:24;;;;;;;0.00;0.00;;;;;38.20;100101.00;;;;4841477;29;20479;-91
2022/02/27 11:28:53;;;;;;;;;;;;;39.00;100093.00;;;;4854277;29;20391;-88
2022/02/27 11:31:22;;;;;;;0.00;0.00;;;;;38.40;100095.00;;;;4843739;29;19928;-86
2022/02/27 11:34:27;;;;;;;0.00;0.00;;;;;38.60;100083.00;;;;4841660;29;20046;-86
2022/02/27 11:36:57;;;;;;;0.00;0.00;;;;;38.10;100117.00;;;;4831010;29;20085;-86
2022/02/27 11:42:56;;;;;;;0.00;0.00;;;;;39.00;100096.00;;;;4856579;29;20061;-83
2022/02/27 11:45:38;;;;;;;0.15;0.15;;;;;35.50;100232.00;;;;4839824;29;20041;-83
2022/02/27 11:48:09;;;;;;;0.00;0.00;;;;;35.30;100120.00;;;;4841121;29;20612;-85
2022/02/27 11:50:41;;;;;;;0.00;0.00;;;;;37.60;100109.00;;;;4837453;29;20064;-87
2022/02/27 11:53:24;;;;;;;0.00;0.00;;;;;39.80;100127.00;;;;4839890;29;20045;-84
2022/02/27 11:55:54;;;;;;;0.00;0.00;;;;;40.30;100131.00;;;;4823453;29;20219;-86
2022/02/27 11:58:24;;;;;;;0.00;0.00;;;;;40.30;100138.00;;;;4822449;29;20064;-87
2022/02/27 12:01:02;;;;;;;0.00;0.00;;;;;40.60;100122.00;;;;4824303;29;20076;-87
2022/02/27 12:03:32;;;;;;;0.00;0.00;;;;;37.50;100160.00;;;;4841565;29;20057;-87
2022/02/27 12:06:03;;;;;;;0.00;0.00;;;;;34.60;100201.00;;;;4840236;29;20399;-85
2022/02/27 12:08:54;;;;;;;0.00;0.00;;;;;34.00;100220.00;;;;4842037;29;20060;-84
2022/02/27 12:11:29;;;;;;;0.00;0.00;;;;;35.30;100212.00;;;;4841150;29;20085;-84
2022/02/27 12:14:00;;;;;;;0.00;0.00;;;;;36.90;100151.00;;;;4841496;29;20106;-86
2022/02/27 12:16:55;;;;;;;0.00;0.00;;;;;37.80;100145.00;;;;4851105;29;20072;-86
2022/02/27 12:19:32;;;;;;;0.00;0.00;;;;;38.50;100178.00;;;;4847131;29;20074;-87
2022/02/27 12:22:02;;;;;;;0.00;0.00;;;;;37.80;100181.00;;;;4823109;29;20506;-85
2022/02/27 12:24:33;;;;;;;0.10;0.10;;;;;37.30;100195.00;;;;4839549;29;20073;-87
2022/02/27 12:27:07;;;;;;;;;;;;;36.80;100196.00;;;;4822452;29;20599;-85
2022/02/27 12:29:47;;;;;;;0.00;0.00;;;;;36.50;100209.00;;;;4838056;29;19928;-84
2022/02/27 12:32:25;;;;;;;0.10;0.10;;;;;35.80;100228.00;;;;4838391;29;20560;-86